Date,TemperatureHighF,TemperatureAvgF,TemperatureLowF,DewpointHighF,DewpointAvgF,DewpointLowF,HumidityHigh,HumidityAvg,HumidityLow,PressureMaxIn,PressureMinIn,WindSpeedMaxMPH,WindSpeedAvgMPH,GustSpeedMaxMPH,PrecipitationSumIn
2013-3-1,27.0,23.2,21.1,22.6,13.9,-99.9,90,79,71,30.43,30.26,10,7,11,0.00
2013-3-2,30.3,21.8,12.6,22.0,11.9,-99.9,89,76,69,30.42,30.22,9,-38,9,0.01
2013-3-3,26.2,18.9,21.0,21.8,-2.5,-99.9,86,70,83,30.22,30.09,10,-212,14,0.00
2013-3-5,24.6,24.1,23.9,20.5,20.1,19.7,85,84,83,30.39,30.36,13,11,16,0.00
2013-3-6,28.7,23.9,20.6,22.5,16.8,-99.9,88,81,75,30.50,30.39,14,-36,17,0.00
2013-3-7,37.9,25.5,16.5,29.2,15.6,-99.9,90,78,68,30.42,30.26,14,9,20,0.00
2013-3-8,46.9,34.6,24.3,37.8,29.8,21.8,92,83,68,30.32,30.03,15,10,23,0.13
2013-3-9,42.2,38.6,35.2,40.6,37.1,33.5,96,94,92,30.03,29.65,16,10,22,0.49
2013-3-10,35.0,30.5,25.3,34.0,28.9,23.6,96,94,92,29.90,29.74,17,-1,23,0.09
2013-3-11,27.8,22.7,23.0,23.5,9.9,-99.9,93,79,78,29.97,29.86,15,-55,20,0.05
2013-3-12,32.0,24.8,20.5,26.4,10.7,-99.9,88,73,76,30.34,30.07,17,12,24,0.01
2013-3-13,28.5,21.6,11.6,22.8,17.0,8.7,89,82,74,30.52,30.35,11,-23,15,0.01
2013-3-14,43.0,34.6,25.2,35.6,24.1,-99.9,91,75,67,30.35,30.10,12,6,14,0.04
2013-3-15,46.4,37.9,32.8,41.2,34.8,30.7,95,89,79,30.10,29.77,11,5,11,0.00
2013-3-16,34.7,33.7,31.9,33.4,32.0,29.6,95,93,91,30.05,29.89,15,10,19,0.00
2013-3-18,21.4,20.3,19.1,14.5,13.3,11.9,75,74,72,30.06,30.05,15,-55,22,0.01
2013-3-19,33.1,21.1,13.6,23.2,2.9,-99.9,81,62,56,30.37,30.06,16,9,23,0.01
2013-3-20,26.8,16.3,12.4,16.9,-11.4,-99.9,79,55,57,30.43,30.22,17,-31,23,0.00
2013-3-21,33.1,21.0,10.1,21.2,11.9,-99.9,84,71,57,30.23,30.05,7,4,11,0.00
2013-3-25,34.5,31.6,26.4,26.2,24.4,21.3,81,74,66,30.36,30.24,15,11,17,0.01
2013-3-26,36.1,28.1,18.6,24.3,19.1,-99.9,87,73,59,30.42,30.34,10,5,12,0.00
2013-3-27,46.7,35.4,25.2,32.0,27.3,21.9,88,73,51,30.38,30.29,9,5,10,0.00
2013-3-28,53.1,40.2,30.0,38.6,29.1,-99.9,87,71,52,30.35,30.25,9,5,13,0.00
2013-3-29,38.9,38.3,38.0,33.7,33.3,33.0,83,82,82,30.28,30.28,7,6,8,0.00